createdAt,value
2023-03-26T00:01:36.973Z,13.90
2023-03-26T00:04:02.438Z,13.80
2023-03-26T00:06:30.049Z,13.90
2023-03-26T00:08:57.333Z,13.90
2023-03-26T00:11:23.658Z,14.00
2023-03-26T00:13:48.618Z,13.80
2023-03-26T00:16:14.252Z,13.70
2023-03-26T00:18:40.527Z,13.70
2023-03-26T00:23:47.517Z,13.70
2023-03-26T00:26:12.968Z,13.60
2023-03-26T00:28:38.116Z,13.60
2023-03-26T00:31:05.562Z,13.60
2023-03-26T00:33:31.924Z,13.60
2023-03-26T00:35:58.845Z,13.60
2023-03-26T00:38:24.183Z,13.40
2023-03-26T00:40:51.020Z,13.30
2023-03-26T00:43:32.991Z,13.40
2023-03-26T00:45:57.855Z,13.40
2023-03-26T00:48:34.344Z,13.50
2023-03-26T00:51:08.948Z,13.50
2023-03-26T00:53:34.073Z,13.50
2023-03-26T00:56:13.076Z,13.50
2023-03-26T00:58:38.405Z,13.50
2023-03-26T01:01:04.973Z,13.60
2023-03-26T01:03:33.744Z,13.50
2023-03-26T01:06:05.841Z,13.50
2023-03-26T01:08:34.393Z,13.60
2023-03-26T01:11:06.959Z,13.60
2023-03-26T01:13:36.354Z,13.60
2023-03-26T01:16:04.188Z,13.60
2023-03-26T01:18:33.926Z,13.60
2023-03-26T01:21:05.381Z,13.40
2023-03-26T01:23:39.124Z,13.40
2023-03-26T01:26:14.351Z,13.40
2023-03-26T01:28:45.079Z,13.50
2023-03-26T01:31:17.587Z,13.50
2023-03-26T01:33:47.887Z,13.50
2023-03-26T01:36:19.088Z,13.40
2023-03-26T01:38:51.318Z,13.50
2023-03-26T01:41:22.254Z,13.50
2023-03-26T01:43:52.730Z,13.50
2023-03-26T01:46:19.396Z,13.50
2023-03-26T01:48:46.294Z,13.50
2023-03-26T01:51:12.436Z,13.50
2023-03-26T01:53:42.392Z,13.50
2023-03-26T01:56:13.921Z,13.50
2023-03-26T01:58:51.141Z,13.50
2023-03-26T02:01:27.996Z,13.60
2023-03-26T02:03:59.127Z,13.60
2023-03-26T02:06:30.797Z,13.50
2023-03-26T02:08:59.451Z,13.40
2023-03-26T02:11:33.515Z,13.30
2023-03-26T02:14:01.629Z,13.20
2023-03-26T02:16:26.264Z,13.20
2023-03-26T02:18:55.843Z,13.10
2023-03-26T02:21:22.418Z,13.00
2023-03-26T02:23:48.060Z,13.00
2023-03-26T02:26:13.064Z,13.00
2023-03-26T02:28:51.769Z,13.00
2023-03-26T02:31:21.950Z,13.00
2023-03-26T02:33:47.825Z,12.90
2023-03-26T02:36:14.121Z,12.90
2023-03-26T02:38:41.783Z,12.70
2023-03-26T02:41:07.338Z,12.60
2023-03-26T02:43:58.110Z,12.50
2023-03-26T02:46:40.587Z,12.60
2023-03-26T02:49:43.947Z,12.50
2023-03-26T02:52:12.311Z,12.50
2023-03-26T02:54:37.501Z,12.50
2023-03-26T02:57:22.143Z,12.50
2023-03-26T03:00:14.106Z,12.50
2023-03-26T03:02:59.296Z,12.60
2023-03-26T03:05:29.116Z,12.60
2023-03-26T03:08:18.592Z,12.60
2023-03-26T03:11:05.421Z,12.60
2023-03-26T03:13:39.961Z,12.60
2023-03-26T03:16:05.738Z,12.60
2023-03-26T03:18:31.976Z,12.50
2023-03-26T03:20:57.082Z,12.50
2023-03-26T03:23:22.038Z,12.70
2023-03-26T03:25:52.993Z,12.70
2023-03-26T03:28:18.417Z,12.60
2023-03-26T03:30:43.045Z,12.60
2023-03-26T03:33:20.539Z,12.60
2023-03-26T03:35:48.193Z,12.50
2023-03-26T03:38:12.805Z,12.40
2023-03-26T03:40:46.615Z,12.40
2023-03-26T03:43:11.700Z,12.40
2023-03-26T03:45:48.763Z,12.40
2023-03-26T03:48:26.779Z,12.40
2023-03-26T03:50:53.969Z,12.50
2023-03-26T03:53:22.505Z,12.60
2023-03-26T03:55:53.400Z,12.50
2023-03-26T03:58:21.827Z,12.50
2023-03-26T04:00:48.706Z,12.50
2023-03-26T04:03:33.912Z,12.50
2023-03-26T04:06:07.043Z,12.50
2023-03-26T04:08:31.986Z,12.40
2023-03-26T04:10:56.552Z,12.40
2023-03-26T04:13:41.241Z,12.50
2023-03-26T04:16:26.155Z,12.50
2023-03-26T04:18:50.803Z,12.60
2023-03-26T04:21:20.048Z,12.70
2023-03-26T04:23:45.453Z,12.70
2023-03-26T04:26:25.003Z,12.80
2023-03-26T04:29:17.940Z,12.80
2023-03-26T04:31:43.687Z,12.80
2023-03-26T04:34:15.923Z,12.80
2023-03-26T04:36:51.568Z,12.70
2023-03-26T04:39:19.919Z,12.70
2023-03-26T04:42:03.122Z,12.70
2023-03-26T04:44:37.660Z,12.60
2023-03-26T04:47:07.207Z,12.60
2023-03-26T04:49:41.476Z,12.60
2023-03-26T04:52:10.621Z,12.50
2023-03-26T04:54:55.605Z,12.60
2023-03-26T04:57:27.491Z,12.50
2023-03-26T05:00:00.549Z,12.50
2023-03-26T05:02:29.393Z,12.40
2023-03-26T05:04:54.013Z,12.50
2023-03-26T05:07:23.977Z,12.60
2023-03-26T05:09:57.679Z,12.60
2023-03-26T05:12:40.992Z,12.60
2023-03-26T05:15:10.886Z,12.60
2023-03-26T05:17:58.262Z,12.70
2023-03-26T05:20:42.005Z,12.70
2023-03-26T05:23:09.410Z,12.80
2023-03-26T05:25:36.205Z,12.80
2023-03-26T05:28:04.332Z,12.90
2023-03-26T05:30:39.776Z,12.90
2023-03-26T05:33:04.487Z,13.00
2023-03-26T05:35:38.430Z,13.00
2023-03-26T05:38:06.686Z,13.00
2023-03-26T05:40:33.014Z,13.10
2023-03-26T05:43:01.320Z,13.10
2023-03-26T05:45:52.426Z,13.00
2023-03-26T05:48:25.044Z,13.00
2023-03-26T05:50:50.424Z,13.00
2023-03-26T05:53:15.898Z,13.10
2023-03-26T05:56:00.992Z,13.10
2023-03-26T05:58:44.448Z,13.20
2023-03-26T06:01:27.858Z,13.20
2023-03-26T06:04:11.103Z,13.10
2023-03-26T06:06:40.551Z,13.20
2023-03-26T06:09:05.341Z,13.10
2023-03-26T06:11:32.281Z,13.10
2023-03-26T06:13:58.928Z,13.10
2023-03-26T06:16:26.388Z,13.00
2023-03-26T06:19:15.987Z,13.10
2023-03-26T06:22:01.564Z,13.10
2023-03-26T06:24:36.376Z,13.20
2023-03-26T06:27:21.350Z,13.20
2023-03-26T06:30:07.367Z,13.30
2023-03-26T06:32:41.057Z,13.30
2023-03-26T06:35:11.289Z,13.20
2023-03-26T06:37:36.281Z,13.00
2023-03-26T06:40:01.040Z,13.00
2023-03-26T06:43:09.967Z,13.00
2023-03-26T06:45:53.944Z,13.10
2023-03-26T06:48:36.871Z,13.20
2023-03-26T06:51:24.355Z,13.20
2023-03-26T06:54:01.118Z,13.10
2023-03-26T06:56:45.960Z,12.80
2023-03-26T06:59:30.700Z,12.70
2023-03-26T07:02:13.690Z,12.70
2023-03-26T07:04:57.351Z,12.80
2023-03-26T07:07:46.670Z,12.70
2023-03-26T07:10:38.184Z,12.40
2023-03-26T07:13:23.067Z,12.10
2023-03-26T07:16:08.528Z,11.70
2023-03-26T07:19:05.614Z,11.60
2023-03-26T07:21:37.223Z,11.50
2023-03-26T07:24:13.796Z,11.40
2023-03-26T07:27:08.011Z,11.50
2023-03-26T07:29:43.493Z,11.70
2023-03-26T07:32:40.644Z,12.20
2023-03-26T07:35:25.415Z,12.50
2023-03-26T07:38:26.014Z,12.90
2023-03-26T07:41:17.766Z,13.50
2023-03-26T07:44:07.528Z,13.30
2023-03-26T07:46:48.141Z,13.20
2023-03-26T07:49:39.014Z,13.00
2023-03-26T07:52:30.803Z,13.10
2023-03-26T07:55:20.203Z,13.00
2023-03-26T07:58:05.653Z,13.00
2023-03-26T08:01:03.801Z,13.60
2023-03-26T08:03:38.329Z,14.00
2023-03-26T08:06:34.366Z,14.40
2023-03-26T08:09:53.811Z,14.80
2023-03-26T08:12:43.360Z,15.20
2023-03-26T08:15:15.321Z,15.80
2023-03-26T08:17:44.982Z,16.20
2023-03-26T08:20:19.417Z,16.80
2023-03-26T08:22:52.037Z,17.10
2023-03-26T08:25:25.572Z,17.50
2023-03-26T08:28:01.441Z,17.60
2023-03-26T08:30:27.705Z,18.10
2023-03-26T08:32:57.706Z,18.40
2023-03-26T08:35:22.615Z,18.50
2023-03-26T08:37:48.684Z,18.80
2023-03-26T08:40:15.073Z,19.20
2023-03-26T08:43:18.019Z,19.50
2023-03-26T08:46:16.464Z,19.60
2023-03-26T08:49:11.074Z,19.50
2023-03-26T08:52:15.554Z,19.70
2023-03-26T08:55:27.809Z,20.00
2023-03-26T08:58:25.440Z,19.70
2023-03-26T09:01:27.281Z,20.10
2023-03-26T09:04:27.452Z,20.20
2023-03-26T09:07:31.391Z,20.10
2023-03-26T09:10:31.652Z,20.00
2023-03-26T09:13:40.821Z,20.40
2023-03-26T09:16:39.677Z,20.10
2023-03-26T09:19:41.777Z,20.00
2023-03-26T09:22:35.766Z,19.80
2023-03-26T09:25:41.737Z,20.00
2023-03-26T09:28:50.548Z,20.10
2023-03-26T09:31:51.470Z,20.20
2023-03-26T09:34:31.776Z,20.20
2023-03-26T09:36:57.804Z,20.40
2023-03-26T09:39:37.740Z,20.40
2023-03-26T09:42:11.733Z,20.40
2023-03-26T09:45:10.747Z,20.50
2023-03-26T09:47:57.074Z,20.50
2023-03-26T09:50:36.697Z,20.80
2023-03-26T09:53:32.191Z,21.10
2023-03-26T09:56:05.932Z,21.10
2023-03-26T09:59:05.948Z,21.20
2023-03-26T10:01:45.680Z,21.00
2023-03-26T10:04:40.504Z,21.00
2023-03-26T10:07:10.561Z,21.20
2023-03-26T10:09:48.569Z,21.10
2023-03-26T10:12:23.672Z,21.20
2023-03-26T10:15:00.900Z,21.30
2023-03-26T10:17:44.555Z,21.20
2023-03-26T10:20:30.685Z,21.40
2023-03-26T10:23:10.259Z,21.50
2023-03-26T10:25:59.478Z,21.60
2023-03-26T10:28:55.167Z,21.80
2023-03-26T10:31:36.856Z,21.70
2023-03-26T10:34:28.471Z,21.30
2023-03-26T10:37:00.978Z,21.20
2023-03-26T10:39:43.430Z,21.50
2023-03-26T10:42:44.820Z,21.30
2023-03-26T10:45:27.595Z,21.20
2023-03-26T10:48:05.195Z,21.10
2023-03-26T10:50:44.018Z,21.10
2023-03-26T10:53:14.027Z,20.80
2023-03-26T10:55:40.988Z,21.00
2023-03-26T10:58:13.741Z,20.90
2023-03-26T11:00:46.023Z,20.90
2023-03-26T11:03:31.192Z,21.00
2023-03-26T11:06:05.917Z,21.00
2023-03-26T11:08:37.861Z,21.00
2023-03-26T11:11:14.108Z,21.00
2023-03-26T11:13:48.016Z,20.60
2023-03-26T11:16:20.410Z,20.20
2023-03-26T11:18:50.502Z,20.00
2023-03-26T11:21:25.606Z,19.70
2023-03-26T11:24:04.932Z,19.60
2023-03-26T11:26:41.100Z,19.70
2023-03-26T11:29:31.306Z,19.90
2023-03-26T11:32:05.457Z,20.30
2023-03-26T11:34:35.409Z,20.60
2023-03-26T11:37:03.247Z,20.60
2023-03-26T11:39:42.992Z,20.50
2023-03-26T11:42:11.271Z,20.60
2023-03-26T11:44:42.448Z,20.60
2023-03-26T11:47:12.308Z,20.70
2023-03-26T11:49:39.013Z,20.90
2023-03-26T11:52:05.397Z,20.80
2023-03-26T11:54:30.194Z,21.10
2023-03-26T11:57:05.888Z,21.10
2023-03-26T11:59:45.229Z,21.20
2023-03-26T12:02:25.670Z,21.40
2023-03-26T12:04:55.530Z,21.60
2023-03-26T12:07:22.551Z,21.80
2023-03-26T12:09:53.014Z,21.90
2023-03-26T12:12:19.197Z,22.00
2023-03-26T12:14:44.462Z,21.80
2023-03-26T12:17:13.186Z,21.70
2023-03-26T12:19:41.116Z,21.40
2023-03-26T12:22:06.159Z,21.10
2023-03-26T12:24:34.178Z,21.10
2023-03-26T12:27:02.458Z,21.10
2023-03-26T12:29:28.065Z,21.10
2023-03-26T12:32:04.441Z,21.10
2023-03-26T12:34:35.329Z,20.80
2023-03-26T12:37:01.367Z,20.50
2023-03-26T12:40:09.886Z,20.50
2023-03-26T12:44:51.043Z,20.60
2023-03-26T12:45:24.201Z,20.70
2023-03-26T12:48:01.409Z,20.70
2023-03-26T12:50:35.854Z,20.70
2023-03-26T12:53:20.146Z,20.70
2023-03-26T12:55:53.539Z,20.90
2023-03-26T12:58:30.933Z,20.80
2023-03-26T13:01:04.014Z,20.80
2023-03-26T13:03:42.728Z,20.90
2023-03-26T13:06:24.142Z,20.70
2023-03-26T13:09:06.691Z,20.60
2023-03-26T13:11:39.288Z,20.80
2023-03-26T13:14:21.385Z,20.90
2023-03-26T13:16:53.068Z,21.10
2023-03-26T13:19:22.512Z,21.10
2023-03-26T13:22:01.813Z,21.10
2023-03-26T13:24:43.924Z,21.10
2023-03-26T13:27:24.301Z,21.10
2023-03-26T13:29:59.572Z,21.00
2023-03-26T13:32:35.674Z,20.90
2023-03-26T13:35:22.008Z,21.00
2023-03-26T13:37:56.626Z,21.10
2023-03-26T13:40:31.440Z,21.10
2023-03-26T13:43:25.929Z,20.90
2023-03-26T13:45:59.656Z,20.70
2023-03-26T13:48:27.831Z,20.50
2023-03-26T13:51:00.424Z,20.40
2023-03-26T13:53:31.143Z,20.40
2023-03-26T13:55:58.939Z,20.40
2023-03-26T13:58:34.574Z,20.40
2023-03-26T14:01:07.486Z,20.30
2023-03-26T14:03:45.651Z,20.30
2023-03-26T14:06:28.854Z,20.10
2023-03-26T14:08:58.938Z,20.10
2023-03-26T14:11:29.364Z,20.00
2023-03-26T14:14:01.907Z,19.90
2023-03-26T14:16:34.967Z,19.90
2023-03-26T14:19:10.532Z,20.00
2023-03-26T14:21:55.982Z,19.90
2023-03-26T14:24:47.025Z,19.80
2023-03-26T14:27:30.063Z,19.70
2023-03-26T14:30:15.706Z,19.60
2023-03-26T14:32:54.267Z,19.40
2023-03-26T14:35:38.023Z,19.40
2023-03-26T14:38:35.524Z,19.20
2023-03-26T14:41:10.278Z,19.20
2023-03-26T14:44:09.404Z,19.30
2023-03-26T14:47:04.906Z,19.40
2023-03-26T14:49:54.117Z,19.30
2023-03-26T14:52:29.006Z,19.30
2023-03-26T14:54:59.778Z,19.30
2023-03-26T14:58:02.057Z,19.30
2023-03-26T15:00:43.820Z,19.40
2023-03-26T15:03:56.212Z,19.40
2023-03-26T15:07:05.690Z,19.50
2023-03-26T15:10:10.820Z,19.60
2023-03-26T15:12:48.269Z,19.60
2023-03-26T15:15:54.171Z,19.50
2023-03-26T15:18:50.107Z,19.50
2023-03-26T15:22:00.231Z,19.40
2023-03-26T15:25:18.284Z,19.10
2023-03-26T15:28:08.369Z,19.10
2023-03-26T15:31:10.079Z,19.10
2023-03-26T15:33:52.968Z,19.00
2023-03-26T15:36:59.030Z,19.00
2023-03-26T15:40:12.177Z,19.00
2023-03-26T15:42:52.461Z,18.90
2023-03-26T15:45:31.255Z,18.90
2023-03-26T15:48:10.326Z,18.80
2023-03-26T15:50:51.503Z,18.80
2023-03-26T15:53:27.250Z,18.80
2023-03-26T15:56:04.554Z,18.70
2023-03-26T15:58:38.307Z,18.60
2023-03-26T16:01:19.243Z,18.50
2023-03-26T16:03:54.409Z,18.40
2023-03-26T16:06:33.060Z,18.40
2023-03-26T16:09:09.044Z,18.40
2023-03-26T16:11:50.223Z,18.30
2023-03-26T16:14:23.360Z,18.30
2023-03-26T16:16:55.185Z,18.40
2023-03-26T16:19:45.648Z,18.20
2023-03-26T16:22:15.365Z,18.10
2023-03-26T16:24:46.688Z,18.00
2023-03-26T16:27:33.809Z,18.00
2023-03-26T16:30:29.184Z,17.80
2023-03-26T16:32:58.926Z,17.80
2023-03-26T16:36:18.646Z,17.70
2023-03-26T16:38:54.348Z,17.50
2023-03-26T16:41:24.044Z,17.30
2023-03-26T16:44:04.318Z,17.10
2023-03-26T16:46:43.285Z,17.00
2023-03-26T16:49:19.020Z,16.90
2023-03-26T16:52:02.381Z,16.90
2023-03-26T16:54:36.179Z,17.00
2023-03-26T16:57:09.223Z,17.00
2023-03-26T17:00:05.290Z,17.00
2023-03-26T17:02:37.632Z,17.00
2023-03-26T17:05:11.230Z,16.90
2023-03-26T17:07:41.579Z,16.90
2023-03-26T17:10:16.326Z,16.80
2023-03-26T17:12:45.698Z,16.80
2023-03-26T17:15:29.129Z,16.80
2023-03-26T17:18:04.448Z,16.80
2023-03-26T17:20:37.024Z,16.70
2023-03-26T17:23:13.587Z,16.60
2023-03-26T17:25:43.763Z,16.60
2023-03-26T17:28:32.290Z,16.50
2023-03-26T17:31:17.562Z,16.30
2023-03-26T17:33:48.070Z,16.30
2023-03-26T17:36:24.317Z,16.20
2023-03-26T17:39:05.693Z,16.20
2023-03-26T17:41:56.999Z,16.20
2023-03-26T17:44:46.866Z,16.20
2023-03-26T17:47:41.436Z,16.20
2023-03-26T17:50:14.967Z,16.20
2023-03-26T17:52:49.922Z,16.30
2023-03-26T17:55:18.849Z,16.20
2023-03-26T17:57:46.622Z,16.00
2023-03-26T18:00:18.569Z,15.90
2023-03-26T18:02:48.060Z,15.80
2023-03-26T18:05:17.457Z,15.80
2023-03-26T18:08:24.004Z,15.80
2023-03-26T18:11:12.500Z,15.90
2023-03-26T18:14:03.865Z,15.90
2023-03-26T18:16:40.337Z,15.80
2023-03-26T18:19:17.760Z,15.70
2023-03-26T18:21:44.084Z,15.60
2023-03-26T18:24:18.002Z,15.50
2023-03-26T18:26:45.548Z,15.40
2023-03-26T18:29:23.987Z,15.50
2023-03-26T18:31:51.872Z,15.40
2023-03-26T18:34:19.561Z,15.40
2023-03-26T18:36:46.979Z,15.30
2023-03-26T18:39:14.518Z,15.20
2023-03-26T18:41:42.045Z,15.10
2023-03-26T18:44:09.235Z,15.10
2023-03-26T18:46:34.709Z,15.00
2023-03-26T18:49:03.299Z,14.70
2023-03-26T18:51:30.656Z,14.50
2023-03-26T18:53:59.683Z,14.50
2023-03-26T18:56:33.918Z,14.50
2023-03-26T18:59:00.268Z,14.30
2023-03-26T19:01:31.081Z,14.20
2023-03-26T19:03:56.216Z,14.20
2023-03-26T19:06:21.312Z,14.00
2023-03-26T19:08:47.855Z,13.90
2023-03-26T19:11:18.185Z,13.60
2023-03-26T19:13:42.857Z,13.70
2023-03-26T19:16:13.818Z,13.60
2023-03-26T19:18:44.206Z,13.50
2023-03-26T19:21:10.683Z,13.30
2023-03-26T19:23:38.875Z,13.30
2023-03-26T19:26:06.092Z,13.40
2023-03-26T19:28:35.260Z,13.40
2023-03-26T19:31:08.896Z,13.30
2023-03-26T19:33:36.632Z,13.30
2023-03-26T19:36:04.872Z,13.30
2023-03-26T19:38:39.857Z,13.30
2023-03-26T19:41:04.893Z,13.20
2023-03-26T19:43:29.826Z,13.10
2023-03-26T19:45:59.847Z,13.00
2023-03-26T19:48:46.677Z,12.90
2023-03-26T19:51:21.173Z,12.80
2023-03-26T19:53:55.592Z,12.80
2023-03-26T19:56:22.157Z,12.70
2023-03-26T19:58:47.008Z,12.70
2023-03-26T20:01:18.980Z,12.80
2023-03-26T20:03:46.398Z,12.70
2023-03-26T20:06:14.408Z,12.60
2023-03-26T20:08:40.675Z,12.50
2023-03-26T20:11:05.616Z,12.40
2023-03-26T20:13:31.281Z,12.40
2023-03-26T20:16:05.792Z,12.40
2023-03-26T20:18:32.560Z,12.30
2023-03-26T20:20:57.827Z,12.30
2023-03-26T20:23:24.026Z,12.30
2023-03-26T20:25:52.039Z,12.30
2023-03-26T20:28:19.227Z,12.30
2023-03-26T20:30:44.895Z,12.30
2023-03-26T20:33:16.584Z,12.20
2023-03-26T20:35:43.635Z,12.20
2023-03-26T20:38:09.840Z,12.30
2023-03-26T20:40:34.750Z,12.30
2023-03-26T20:42:59.449Z,12.20
2023-03-26T20:45:26.440Z,12.10
2023-03-26T20:47:52.202Z,12.10
2023-03-26T20:50:18.133Z,11.90
2023-03-26T20:52:44.948Z,11.80
2023-03-26T20:55:13.795Z,11.70
2023-03-26T20:57:39.100Z,11.70
2023-03-26T21:00:09.095Z,11.50
2023-03-26T21:02:33.572Z,11.40
2023-03-26T21:04:58.749Z,11.30
2023-03-26T21:07:23.562Z,11.20
2023-03-26T21:09:51.396Z,11.10
2023-03-26T21:12:22.928Z,11.10
2023-03-26T21:14:48.534Z,11.10
2023-03-26T21:17:17.135Z,10.90
2023-03-26T21:19:42.742Z,10.90
2023-03-26T21:22:20.886Z,10.90
2023-03-26T21:24:59.881Z,10.90
2023-03-26T21:27:29.428Z,11.00
2023-03-26T21:29:55.142Z,11.00
2023-03-26T21:32:20.456Z,10.90
2023-03-26T21:34:55.528Z,10.90
2023-03-26T21:37:23.086Z,10.80
2023-03-26T21:39:48.314Z,10.90
2023-03-26T21:42:15.220Z,10.80
2023-03-26T21:44:40.865Z,10.60
2023-03-26T21:47:09.523Z,10.40
2023-03-26T21:49:35.562Z,10.40
2023-03-26T21:52:00.949Z,10.20
2023-03-26T21:54:28.129Z,10.00
2023-03-26T21:57:06.070Z,9.90
2023-03-26T21:59:40.688Z,9.80
2023-03-26T22:02:14.356Z,9.90
2023-03-26T22:04:49.576Z,9.90
2023-03-26T22:07:17.488Z,9.80
2023-03-26T22:09:43.778Z,9.80
2023-03-26T22:12:09.071Z,9.70
2023-03-26T22:14:35.560Z,9.70
2023-03-26T22:17:00.195Z,9.60
2023-03-26T22:19:30.155Z,9.60
2023-03-26T22:21:55.295Z,9.60
2023-03-26T22:24:20.173Z,9.70
2023-03-26T22:26:44.864Z,9.70
2023-03-26T22:29:09.794Z,9.70
2023-03-26T22:31:36.320Z,9.70
2023-03-26T22:34:00.907Z,9.70
2023-03-26T22:36:27.553Z,9.70
2023-03-26T22:38:54.621Z,9.60
2023-03-26T22:41:19.350Z,9.60
2023-03-26T22:43:46.268Z,9.70
2023-03-26T22:46:11.763Z,9.70
2023-03-26T22:48:40.727Z,9.80
2023-03-26T22:51:08.114Z,9.70
2023-03-26T22:53:33.420Z,9.70
2023-03-26T22:55:59.058Z,9.80
2023-03-26T22:58:24.123Z,9.70
2023-03-26T23:00:51.773Z,9.70
2023-03-26T23:03:16.498Z,9.70
2023-03-26T23:05:42.733Z,9.70
2023-03-26T23:08:07.889Z,9.60
2023-03-26T23:10:32.722Z,9.70
2023-03-26T23:12:57.410Z,9.70
2023-03-26T23:15:22.335Z,9.70
2023-03-26T23:17:54.598Z,9.70
2023-03-26T23:20:21.535Z,9.70
2023-03-26T23:22:48.174Z,9.60
2023-03-26T23:25:13.752Z,9.60
2023-03-26T23:27:38.470Z,9.50
2023-03-26T23:30:04.282Z,9.50
2023-03-26T23:32:29.396Z,9.50
2023-03-26T23:34:55.947Z,9.50
2023-03-26T23:37:23.596Z,9.60
2023-03-26T23:39:50.504Z,9.60
2023-03-26T23:42:15.452Z,9.60
2023-03-26T23:44:40.205Z,9.60
2023-03-26T23:47:10.317Z,9.70
2023-03-26T23:49:34.921Z,9.70
2023-03-26T23:51:59.631Z,9.70
2023-03-26T23:54:25.855Z,9.70
2023-03-26T23:56:53.825Z,9.60
2023-03-26T23:59:19.140Z,9.50
